Evening Mist — WBA7462 — position and weather

sailwx.info

Track history (hours):
 
Tides and Currents Weather Stations Pressure Air Temp Water Temp Dewpoint Dewpoint Depression Visibility Wind Speed Wind Dir Waves Ship Positions

Evening Mist

Owner: TUG EVENING MIST CORP, MELVILLE, NY. More information available from US FCC via Universal Licensing System and Coast Guard Vessel Documentation Center.

Last reported at 2018-Jun-22 11:03 UTC. Time now 2018-Jun-23 00:40 UTC.
Position N 40°48' W 073°49'.

Length 120 m; draft 5 m.

Type: Tow > 200 m length. MMSI: 367008230.

Date/timePositionNaut miles runAvg speedWind from/ knotsBaromVisibWave heightAir tempDewpointWater temp
2018-Jun-22 11:03N 40°48' W 073°49'3 5.8
2018-Jun-22 10:34N 40°48' W 073°53'1 6.2
2018-Jun-22 10:27N 40°48' W 073°54'3 6.1
2018-Jun-22 09:52N 40°46' W 073°57'3 6.9
2018-Jun-22 09:30N 40°43' W 073°58'4 7.3
2018-Jun-22 09:00N 40°41' W 074°01'2 4.6
2018-Jun-22 08:30N 40°39' W 074°03'0 0.1
2018-Jun-22 08:00N 40°39' W 074°03'0 0.2
2018-Jun-22 07:30N 40°39' W 074°03'0 0.2
2018-Jun-22 07:00N 40°39' W 074°03'0 0.6
2018-Jun-22 06:30N 40°39' W 074°03'2 4.6
2018-Jun-22 06:00N 40°39' W 074°06'3 5.2
2018-Jun-22 05:30N 40°39' W 074°10'2 0.3
2018-Jun-21 22:22N 40°38' W 074°12'3 7.4
2018-Jun-21 22:00N 40°39' W 074°09'1 1.3
2018-Jun-21 21:07N 40°38' W 074°07'0 0.0
2018-Jun-21 20:54N 40°38' W 074°07'0 0.0
2018-Jun-21 20:26N 40°38' W 074°07'0 0.0
2018-Jun-21 19:59N 40°38' W 074°07'0 0.0
2018-Jun-21 19:30N 40°38' W 074°07'0 0.0
2018-Jun-21 18:49N 40°38' W 074°07'0 0.0
2018-Jun-21 18:19N 40°38' W 074°07'0 0.0
2018-Jun-21 18:00N 40°38' W 074°07'0 0.0
2018-Jun-21 17:11N 40°38' W 074°07'0 0.0
2018-Jun-21 16:45N 40°38' W 074°07'0 0.0
2018-Jun-21 16:30N 40°38' W 074°07'0 0.0
2018-Jun-21 16:00N 40°38' W 074°07'0 0.8
2018-Jun-21 15:30N 40°39' W 074°08'3 0.5
2018-Jun-21 08:48N 40°38' W 074°12'2 6.6
2018-Jun-21 08:28N 40°39' W 074°09'3 7.1
2018-Jun-21 08:00N 40°39' W 074°05'2 4.0
2018-Jun-21 07:30N 40°40' W 074°02'0 0.1
2018-Jun-21 07:00N 40°40' W 074°02'0 0.0
2018-Jun-21 06:30N 40°40' W 074°02'0 0.1
2018-Jun-21 06:00N 40°40' W 074°02'1 1.1
2018-Jun-21 05:30N 40°40' W 074°02'2 3.6
2018-Jun-21 05:00N 40°41' W 074°00'0 0.0
2018-Jun-21 04:30N 40°41' W 074°00'0 0.0
2018-Jun-21 04:00N 40°41' W 074°00'0 0.0
2018-Jun-21 03:31N 40°41' W 074°00'0 0.0
2018-Jun-21 03:00N 40°41' W 074°00'0 0.0
2018-Jun-21 02:30N 40°41' W 074°00'0 0.0
2018-Jun-21 02:00N 40°41' W 074°00'0 0.0
2018-Jun-21 01:30N 40°41' W 074°00'0 0.0
2018-Jun-21 01:00N 40°41' W 074°00'0 0.0
2018-Jun-21 00:30N 40°41' W 074°00'0 0.0
2018-Jun-21 00:00N 40°41' W 074°00'0 0.2
2018-Jun-20 23:31N 40°41' W 074°00'3 5.0
2018-Jun-20 23:00N 40°40' W 074°03'4 7.0
2018-Jun-20 22:30N 40°39' W 074°07'3 5.1
2018-Jun-20 22:01N 40°39' W 074°04'4 7.3
2018-Jun-20 21:30N 40°41' W 074°00'0 0.2
2018-Jun-20 21:00N 40°41' W 074°00'4 7.1
2018-Jun-20 20:30N 40°39' W 074°04'2 4.5
2018-Jun-20 20:00N 40°39' W 074°07'0 0.0
2018-Jun-20 19:21N 40°39' W 074°07'0 0.2
2018-Jun-20 17:14N 40°39' W 074°07'1 4.5
2018-Jun-20 17:00N 40°39' W 074°08'3 0.5
2018-Jun-20 12:04N 40°38' W 074°12'1 8.7
2018-Jun-20 12:00N 40°39' W 074°11'3 6.6
2018-Jun-20 11:30N 40°39' W 074°07'0 0.1
2018-Jun-20 11:00N 40°39' W 074°07'0 0.0
2018-Jun-20 10:30N 40°39' W 074°07'0 0.0
2018-Jun-20 09:43N 40°39' W 074°07'0 0.0
2018-Jun-20 09:29N 40°39' W 074°07'0 0.0
2018-Jun-20 08:42N 40°39' W 074°07'0 0.0
2018-Jun-20 08:17N 40°39' W 074°07'0 0.0
2018-Jun-20 07:56N 40°39' W 074°07'0 0.0
2018-Jun-20 02:44N 40°39' W 074°07'0 0.0
2018-Jun-20 02:23N 40°39' W 074°07'0 0.1
2018-Jun-20 01:54N 40°39' W 074°07'3 6.6
2018-Jun-20 01:30N 40°39' W 074°10'3 2.9
2018-Jun-20 00:34N 40°36' W 074°12'0 3.6
2018-Jun-20 00:30N 40°36' W 074°12'1 0.1
2018-Jun-19 17:00N 40°37' W 074°12'3 6.4
2018-Jun-19 16:30N 40°39' W 074°08'5 9.1
2018-Jun-19 16:00N 40°39' W 074°03'1 1.0
2018-Jun-19 15:30N 40°40' W 074°02'0 0.0
2018-Jun-19 15:00N 40°40' W 074°02'0 0.0
2018-Jun-19 14:30N 40°40' W 074°02'0 0.0
2018-Jun-19 14:00N 40°40' W 074°02'0 0.0
2018-Jun-19 13:30N 40°40' W 074°02'0 0.0
2018-Jun-19 13:00N 40°40' W 074°02'0 0.0
2018-Jun-19 12:30N 40°40' W 074°02'0 0.7
2018-Jun-19 12:00N 40°40' W 074°03'3 6.1
2018-Jun-19 11:30N 40°39' W 074°06'0 0.3
2018-Jun-19 11:00N 40°39' W 074°07'0 0.6
2018-Jun-19 10:25N 40°39' W 074°07'3 6.0
2018-Jun-19 10:00N 40°39' W 074°04'1 2.4
2018-Jun-19 09:30N 40°40' W 074°02'0 0.0
2018-Jun-19 09:00N 40°40' W 074°02'0 0.0
2018-Jun-19 08:30N 40°40' W 074°02'0 0.0
2018-Jun-19 08:00N 40°40' W 074°02'0 0.1
2018-Jun-19 07:30N 40°40' W 074°02'0 0.1
2018-Jun-19 07:00N 40°40' W 074°02'0 0.0
2018-Jun-19 06:30N 40°40' W 074°02'0 0.0
2018-Jun-19 06:00N 40°40' W 074°02'0 0.0
2018-Jun-19 05:30N 40°40' W 074°02'0 0.0
2018-Jun-19 05:00N 40°40' W 074°02'0 0.0
2018-Jun-19 04:30N 40°40' W 074°02'0 0.0
2018-Jun-19 04:00N 40°40' W 074°02'0 0.0
2018-Jun-19 03:30N 40°40' W 074°02'0 0.0
2018-Jun-19 03:00N 40°40' W 074°02'0 0.0
2018-Jun-19 02:30N 40°40' W 074°02'0 0.0
2018-Jun-19 02:00N 40°40' W 074°02'0 0.0
2018-Jun-19 01:30N 40°40' W 074°02'0 0.1
2018-Jun-19 01:00N 40°40' W 074°02'0 0.1
2018-Jun-19 00:30N 40°40' W 074°02'0 0.1
2018-Jun-19 00:00N 40°40' W 074°02'0 0.0
2018-Jun-18 23:30N 40°40' W 074°02'0 0.0
2018-Jun-18 23:00N 40°40' W 074°02'0 0.0
2018-Jun-18 22:30N 40°40' W 074°02'0 0.0
2018-Jun-18 22:00N 40°40' W 074°02'0 0.0
2018-Jun-18 21:30N 40°40' W 074°02'0 0.0
2018-Jun-18 21:00N 40°40' W 074°02'0 0.2
2018-Jun-18 20:30N 40°40' W 074°02'0 0.0
2018-Jun-18 20:00N 40°40' W 074°02'0 0.1
2018-Jun-18 19:30N 40°40' W 074°02'0 0.0
2018-Jun-18 19:00N 40°40' W 074°02'2 3.8
2018-Jun-18 18:30N 40°39' W 074°05'2 4.2
2018-Jun-18 18:00N 40°38' W 074°07'0 0.0
2018-Jun-18 17:30N 40°38' W 074°07'0 0.0
2018-Jun-18 17:00N 40°38' W 074°07'0 0.0
2018-Jun-18 16:23N 40°38' W 074°07'0 0.0
2018-Jun-18 16:00N 40°38' W 074°07'0 0.0
2018-Jun-18 15:30N 40°38' W 074°07'0 0.0
2018-Jun-18 15:00N 40°38' W 074°07'2 4.7
2018-Jun-18 14:30N 40°39' W 074°04'2 3.4
2018-Jun-18 14:00N 40°40' W 074°02'0 0.0
2018-Jun-18 13:30N 40°40' W 074°02'0 0.1
2018-Jun-18 13:00N 40°40' W 074°02'0 0.0
2018-Jun-18 12:30N 40°40' W 074°02'0 0.0
2018-Jun-18 12:00N 40°40' W 074°02'0 0.0
2018-Jun-18 11:30N 40°40' W 074°02'0 0.0
2018-Jun-18 11:00N 40°40' W 074°02'0 0.0
2018-Jun-18 10:30N 40°40' W 074°02'0 0.0
2018-Jun-18 10:00N 40°40' W 074°02'0 0.0
2018-Jun-18 09:30N 40°40' W 074°02'0 0.0
2018-Jun-18 09:00N 40°40' W 074°02'0 0.0
2018-Jun-18 08:30N 40°40' W 074°02'0 0.1
2018-Jun-18 08:00N 40°40' W 074°02'0 0.0
2018-Jun-18 07:30N 40°40' W 074°02'0 0.0
2018-Jun-18 06:59N 40°40' W 074°02'0 0.0
2018-Jun-18 06:31N 40°40' W 074°02'4 6.5
2018-Jun-18 05:58N 40°39' W 074°07'0 0.1
2018-Jun-18 05:30N 40°39' W 074°07'2 4.8
2018-Jun-18 05:00N 40°39' W 074°04'1 1.6
2018-Jun-18 04:30N 40°38' W 074°04'2 3.3
2018-Jun-18 04:00N 40°39' W 074°05'1 2.0
2018-Jun-18 03:30N 40°39' W 074°07'0 0.1
2018-Jun-18 03:00N 40°39' W 074°07'4 7.4
2018-Jun-18 02:30N 40°40' W 074°02'0 0.2
2018-Jun-18 02:00N 40°40' W 074°02'2 4.7
2018-Jun-18 01:30N 40°42' W 074°00'3 5.2
2018-Jun-18 01:00N 40°44' W 073°58'6 0.2
2018-Jun-16 17:08N 40°48' W 073°53'2 5.6
2018-Jun-16 16:43N 40°47' W 073°56'1 7.0
2018-Jun-16 16:30N 40°46' W 073°57'3 6.9
2018-Jun-16 16:00N 40°42' W 073°59'4 7.1
2018-Jun-16 15:30N 40°40' W 074°03'0 0.5
2018-Jun-16 15:00N 40°40' W 074°02'0 0.0
2018-Jun-16 14:30N 40°40' W 074°02'0 0.0
2018-Jun-16 14:01N 40°40' W 074°02'0 0.1
2018-Jun-16 13:31N 40°40' W 074°02'0 0.1
2018-Jun-16 13:01N 40°40' W 074°03'0 0.0
2018-Jun-16 12:30N 40°40' W 074°03'0 0.9
2018-Jun-16 12:00N 40°40' W 074°03'3 5.0
2018-Jun-16 11:30N 40°39' W 074°06'3 4.7
2018-Jun-16 10:57N 40°39' W 074°10'2 4.7
2018-Jun-16 10:29N 40°38' W 074°12'5 2.6
2018-Jun-16 08:43N 40°33' W 074°14'0 0.0
2018-Jun-16 08:30N 40°33' W 074°14'3 5.0
2018-Jun-16 07:51N 40°36' W 074°12'3 7.3
2018-Jun-16 07:30N 40°39' W 074°11'3 6.2
2018-Jun-16 07:01N 40°39' W 074°07'0 0.0
2018-Jun-16 06:30N 40°39' W 074°07'0 0.0
2018-Jun-16 05:59N 40°39' W 074°07'0 0.0
2018-Jun-16 05:28N 40°39' W 074°07'0 0.0
2018-Jun-16 05:00N 40°39' W 074°07'0 0.0
2018-Jun-16 04:28N 40°39' W 074°07'0 0.0
2018-Jun-16 04:00N 40°39' W 074°07'0 0.0
2018-Jun-16 03:30N 40°39' W 074°07'0 0.0
2018-Jun-16 03:00N 40°39' W 074°07'0 0.0
2018-Jun-16 02:30N 40°39' W 074°07'0 0.0
2018-Jun-16 02:01N 40°39' W 074°07'0 0.0
2018-Jun-16 01:30N 40°39' W 074°07'0 0.0
2018-Jun-16 01:00N 40°39' W 074°07'0 0.0
2018-Jun-16 00:30N 40°39' W 074°07'0 0.0
2018-Jun-16 00:00N 40°39' W 074°07'0 0.0
2018-Jun-15 23:31N 40°39' W 074°07'0 0.0
2018-Jun-15 23:00N 40°39' W 074°07'0 0.0
2018-Jun-15 22:30N 40°39' W 074°07'0 0.0
2018-Jun-15 22:01N 40°39' W 074°07'0 0.0
2018-Jun-15 21:29N 40°39' W 074°07'0 0.0
2018-Jun-15 21:00N 40°39' W 074°07'0 0.0
2018-Jun-15 20:29N 40°39' W 074°07'0 0.0
2018-Jun-15 19:59N 40°39' W 074°07'0 0.0
2018-Jun-15 19:30N 40°39' W 074°07'0 0.0
2018-Jun-15 19:00N 40°39' W 074°07'0 0.0
2018-Jun-15 18:30N 40°39' W 074°07'0 0.0
2018-Jun-15 18:00N 40°39' W 074°07'0 0.8
2018-Jun-15 17:30N 40°39' W 074°07'0 0.2
2018-Jun-15 17:00N 40°39' W 074°07'4 1.0
2018-Jun-15 13:13N 40°38' W 074°12'2 6.3
2018-Jun-15 12:58N 40°39' W 074°10'4 8.2
2018-Jun-15 12:31N 40°39' W 074°05'2 3.5
2018-Jun-15 12:00N 40°38' W 074°03'2 4.4
2018-Jun-15 11:30N 40°40' W 074°03'3 6.3
2018-Jun-15 11:00N 40°42' W 073°60'2 4.7
2018-Jun-15 10:31N 40°44' W 073°58'3 0.1
2018-Jun-14 02:23N 40°47' W 073°56'2 5.5
2018-Jun-14 02:00N 40°45' W 073°58'2 4.5
2018-Jun-14 01:30N 40°43' W 073°58'3 5.9
2018-Jun-14 01:00N 40°41' W 074°02'2 3.7
2018-Jun-14 00:30N 40°40' W 074°02'1 2.5
2018-Jun-14 00:00N 40°39' W 074°03'0 0.8
2018-Jun-13 23:30N 40°38' W 074°03'1 1.9
2018-Jun-13 23:01N 40°37' W 074°04'0 0.4
2018-Jun-13 22:31N 40°37' W 074°04'1 1.0
2018-Jun-13 22:01N 40°38' W 074°04'1 2.9
2018-Jun-13 21:30N 40°39' W 074°05'3 5.0
2018-Jun-13 21:00N 40°39' W 074°09'2 4.3
2018-Jun-13 20:30N 40°39' W 074°11'1 0.2
2018-Jun-13 15:07N 40°39' W 074°10'1 8.7
2018-Jun-13 15:01N 40°39' W 074°09'3 6.4
2018-Jun-13 14:30N 40°39' W 074°04'1 1.7
2018-Jun-13 14:00N 40°39' W 074°03'3 6.0
2018-Jun-13 13:30N 40°39' W 074°07'1 1.3
2018-Jun-13 13:01N 40°39' W 074°08'4 0.8
2018-Jun-13 07:55N 40°36' W 074°12'0 0.0
2018-Jun-13 06:52N 40°36' W 074°12'2 5.9
2018-Jun-13 06:29N 40°39' W 074°11'3 6.7
2018-Jun-13 06:01N 40°39' W 074°07'0 0.0
2018-Jun-13 05:30N 40°39' W 074°07'0 0.0
2018-Jun-13 05:00N 40°39' W 074°07'0 0.0
2018-Jun-13 04:30N 40°39' W 074°07'0 0.0
2018-Jun-13 04:00N 40°39' W 074°07'0 0.0
2018-Jun-13 03:30N 40°39' W 074°07'7 4.0
2018-Jun-13 01:40N 40°33' W 074°14'5 4.9
2018-Jun-13 00:36N 40°38' W 074°12'1 7.7
2018-Jun-13 00:27N 40°39' W 074°10'3 6.6
2018-Jun-12 23:59N 40°39' W 074°06'3 6.6
2018-Jun-12 23:31N 40°40' W 074°02'0 0.5
2018-Jun-12 23:00N 40°40' W 074°02'0 0.6
2018-Jun-12 22:31N 40°40' W 074°02'0 0.0
2018-Jun-12 22:00N 40°40' W 074°02'0 0.0
2018-Jun-12 21:30N 40°40' W 074°02'0 0.0
2018-Jun-12 21:00N 40°40' W 074°02'0 0.0
2018-Jun-12 20:31N 40°40' W 074°02'0 0.0
2018-Jun-12 20:00N 40°40' W 074°02'0 0.0
2018-Jun-12 19:31N 40°40' W 074°02'0 0.2
2018-Jun-12 19:00N 40°40' W 074°02'0 0.0
2018-Jun-12 18:31N 40°40' W 074°02'0 0.1
2018-Jun-12 17:59N 40°40' W 074°02'0 0.0
2018-Jun-12 17:30N 40°40' W 074°02'0 0.0
2018-Jun-12 17:00N 40°40' W 074°02'3 5.4
2018-Jun-12 16:30N 40°39' W 074°05'2 3.1
2018-Jun-12 15:58N 40°38' W 074°07'0 0.0
2018-Jun-12 15:26N 40°38' W 074°07'0 0.0
2018-Jun-12 15:01N 40°38' W 074°07'0 0.0
2018-Jun-12 14:27N 40°38' W 074°07'0 0.0
2018-Jun-12 13:52N 40°38' W 074°07'0 0.0
2018-Jun-12 13:26N 40°38' W 074°07'4 3.4
2018-Jun-12 12:12N 40°37' W 074°12'1 7.3
2018-Jun-12 11:59N 40°38' W 074°12'2 3.8
2018-Jun-12 11:31N 40°39' W 074°09'  
Track history (hours):
 
Tides and Currents Weather Stations Pressure Air Temp Water Temp Dewpoint Dewpoint Depression Visibility Wind Speed Wind Dir Waves Ship Positions

Evening Mist

Owner: TUG EVENING MIST CORP, MELVILLE, NY. More information available from US FCC via Universal Licensing System and Coast Guard Vessel Documentation Center.

Last reported at 2018-Jun-22 11:03 UTC. Time now 2018-Jun-23 00:40 UTC.
Position N 40°48' W 073°49'.

Length 120 m; draft 5 m.

Type: Tow > 200 m length. MMSI: 367008230.

Date/timePositionNaut miles runAvg speedWind from/ knotsBaromVisibWave heightAir tempDewpointWater temp
2018-Jun-22 11:03N 40°48' W 073°49'3 5.8
2018-Jun-22 10:34N 40°48' W 073°53'1 6.2
2018-Jun-22 10:27N 40°48' W 073°54'3 6.1
2018-Jun-22 09:52N 40°46' W 073°57'3 6.9
2018-Jun-22 09:30N 40°43' W 073°58'4 7.3
2018-Jun-22 09:00N 40°41' W 074°01'2 4.6
2018-Jun-22 08:30N 40°39' W 074°03'0 0.1
2018-Jun-22 08:00N 40°39' W 074°03'0 0.2
2018-Jun-22 07:30N 40°39' W 074°03'0 0.2
2018-Jun-22 07:00N 40°39' W 074°03'0 0.6
2018-Jun-22 06:30N 40°39' W 074°03'2 4.6
2018-Jun-22 06:00N 40°39' W 074°06'3 5.2
2018-Jun-22 05:30N 40°39' W 074°10'2 0.3
2018-Jun-21 22:22N 40°38' W 074°12'3 7.4
2018-Jun-21 22:00N 40°39' W 074°09'1 1.3
2018-Jun-21 21:07N 40°38' W 074°07'0 0.0
2018-Jun-21 20:54N 40°38' W 074°07'0 0.0
2018-Jun-21 20:26N 40°38' W 074°07'0 0.0
2018-Jun-21 19:59N 40°38' W 074°07'0 0.0
2018-Jun-21 19:30N 40°38' W 074°07'0 0.0
2018-Jun-21 18:49N 40°38' W 074°07'0 0.0
2018-Jun-21 18:19N 40°38' W 074°07'0 0.0
2018-Jun-21 18:00N 40°38' W 074°07'0 0.0
2018-Jun-21 17:11N 40°38' W 074°07'0 0.0
2018-Jun-21 16:45N 40°38' W 074°07'0 0.0
2018-Jun-21 16:30N 40°38' W 074°07'0 0.0
2018-Jun-21 16:00N 40°38' W 074°07'0 0.8
2018-Jun-21 15:30N 40°39' W 074°08'3 0.5
2018-Jun-21 08:48N 40°38' W 074°12'2 6.6
2018-Jun-21 08:28N 40°39' W 074°09'3 7.1
2018-Jun-21 08:00N 40°39' W 074°05'2 4.0
2018-Jun-21 07:30N 40°40' W 074°02'0 0.1
2018-Jun-21 07:00N 40°40' W 074°02'0 0.0
2018-Jun-21 06:30N 40°40' W 074°02'0 0.1
2018-Jun-21 06:00N 40°40' W 074°02'1 1.1
2018-Jun-21 05:30N 40°40' W 074°02'2 3.6
2018-Jun-21 05:00N 40°41' W 074°00'0 0.0
2018-Jun-21 04:30N 40°41' W 074°00'0 0.0
2018-Jun-21 04:00N 40°41' W 074°00'0 0.0
2018-Jun-21 03:31N 40°41' W 074°00'0 0.0
2018-Jun-21 03:00N 40°41' W 074°00'0 0.0
2018-Jun-21 02:30N 40°41' W 074°00'0 0.0
2018-Jun-21 02:00N 40°41' W 074°00'0 0.0
2018-Jun-21 01:30N 40°41' W 074°00'0 0.0
2018-Jun-21 01:00N 40°41' W 074°00'0 0.0
2018-Jun-21 00:30N 40°41' W 074°00'0 0.0
2018-Jun-21 00:00N 40°41' W 074°00'0 0.2
2018-Jun-20 23:31N 40°41' W 074°00'3 5.0
2018-Jun-20 23:00N 40°40' W 074°03'4 7.0
2018-Jun-20 22:30N 40°39' W 074°07'3 5.1
2018-Jun-20 22:01N 40°39' W 074°04'4 7.3
2018-Jun-20 21:30N 40°41' W 074°00'0 0.2
2018-Jun-20 21:00N 40°41' W 074°00'4 7.1
2018-Jun-20 20:30N 40°39' W 074°04'2 4.5
2018-Jun-20 20:00N 40°39' W 074°07'0 0.0
2018-Jun-20 19:21N 40°39' W 074°07'0 0.2
2018-Jun-20 17:14N 40°39' W 074°07'1 4.5
2018-Jun-20 17:00N 40°39' W 074°08'3 0.5
2018-Jun-20 12:04N 40°38' W 074°12'1 8.7
2018-Jun-20 12:00N 40°39' W 074°11'3 6.6
2018-Jun-20 11:30N 40°39' W 074°07'0 0.1
2018-Jun-20 11:00N 40°39' W 074°07'0 0.0
2018-Jun-20 10:30N 40°39' W 074°07'0 0.0
2018-Jun-20 09:43N 40°39' W 074°07'0 0.0
2018-Jun-20 09:29N 40°39' W 074°07'0 0.0
2018-Jun-20 08:42N 40°39' W 074°07'0 0.0
2018-Jun-20 08:17N 40°39' W 074°07'0 0.0
2018-Jun-20 07:56N 40°39' W 074°07'0 0.0
2018-Jun-20 02:44N 40°39' W 074°07'0 0.0
2018-Jun-20 02:23N 40°39' W 074°07'0 0.1
2018-Jun-20 01:54N 40°39' W 074°07'3 6.6
2018-Jun-20 01:30N 40°39' W 074°10'3 2.9
2018-Jun-20 00:34N 40°36' W 074°12'0 3.6
2018-Jun-20 00:30N 40°36' W 074°12'1 0.1
2018-Jun-19 17:00N 40°37' W 074°12'3 6.4
2018-Jun-19 16:30N 40°39' W 074°08'5 9.1
2018-Jun-19 16:00N 40°39' W 074°03'1 1.0
2018-Jun-19 15:30N 40°40' W 074°02'0 0.0
2018-Jun-19 15:00N 40°40' W 074°02'0 0.0
2018-Jun-19 14:30N 40°40' W 074°02'0 0.0
2018-Jun-19 14:00N 40°40' W 074°02'0 0.0
2018-Jun-19 13:30N 40°40' W 074°02'0 0.0
2018-Jun-19 13:00N 40°40' W 074°02'0 0.0
2018-Jun-19 12:30N 40°40' W 074°02'0 0.7
2018-Jun-19 12:00N 40°40' W 074°03'3 6.1
2018-Jun-19 11:30N 40°39' W 074°06'0 0.3
2018-Jun-19 11:00N 40°39' W 074°07'0 0.6
2018-Jun-19 10:25N 40°39' W 074°07'3 6.0
2018-Jun-19 10:00N 40°39' W 074°04'1 2.4
2018-Jun-19 09:30N 40°40' W 074°02'0 0.0
2018-Jun-19 09:00N 40°40' W 074°02'0 0.0
2018-Jun-19 08:30N 40°40' W 074°02'0 0.0
2018-Jun-19 08:00N 40°40' W 074°02'0 0.1
2018-Jun-19 07:30N 40°40' W 074°02'0 0.1
2018-Jun-19 07:00N 40°40' W 074°02'0 0.0
2018-Jun-19 06:30N 40°40' W 074°02'0 0.0
2018-Jun-19 06:00N 40°40' W 074°02'0 0.0
2018-Jun-19 05:30N 40°40' W 074°02'0 0.0
2018-Jun-19 05:00N 40°40' W 074°02'0 0.0
2018-Jun-19 04:30N 40°40' W 074°02'0 0.0
2018-Jun-19 04:00N 40°40' W 074°02'0 0.0
2018-Jun-19 03:30N 40°40' W 074°02'0 0.0
2018-Jun-19 03:00N 40°40' W 074°02'0 0.0
2018-Jun-19 02:30N 40°40' W 074°02'0 0.0
2018-Jun-19 02:00N 40°40' W 074°02'0 0.0
2018-Jun-19 01:30N 40°40' W 074°02'0 0.1
2018-Jun-19 01:00N 40°40' W 074°02'0 0.1
2018-Jun-19 00:30N 40°40' W 074°02'0 0.1
2018-Jun-19 00:00N 40°40' W 074°02'0 0.0
2018-Jun-18 23:30N 40°40' W 074°02'0 0.0
2018-Jun-18 23:00N 40°40' W 074°02'0 0.0
2018-Jun-18 22:30N 40°40' W 074°02'0 0.0
2018-Jun-18 22:00N 40°40' W 074°02'0 0.0
2018-Jun-18 21:30N 40°40' W 074°02'0 0.0
2018-Jun-18 21:00N 40°40' W 074°02'0 0.2
2018-Jun-18 20:30N 40°40' W 074°02'0 0.0
2018-Jun-18 20:00N 40°40' W 074°02'0 0.1
2018-Jun-18 19:30N 40°40' W 074°02'0 0.0
2018-Jun-18 19:00N 40°40' W 074°02'2 3.8
2018-Jun-18 18:30N 40°39' W 074°05'2 4.2
2018-Jun-18 18:00N 40°38' W 074°07'0 0.0
2018-Jun-18 17:30N 40°38' W 074°07'0 0.0
2018-Jun-18 17:00N 40°38' W 074°07'0 0.0
2018-Jun-18 16:23N 40°38' W 074°07'0 0.0
2018-Jun-18 16:00N 40°38' W 074°07'0 0.0
2018-Jun-18 15:30N 40°38' W 074°07'0 0.0
2018-Jun-18 15:00N 40°38' W 074°07'2 4.7
2018-Jun-18 14:30N 40°39' W 074°04'2 3.4
2018-Jun-18 14:00N 40°40' W 074°02'0 0.0
2018-Jun-18 13:30N 40°40' W 074°02'0 0.1
2018-Jun-18 13:00N 40°40' W 074°02'0 0.0
2018-Jun-18 12:30N 40°40' W 074°02'0 0.0
2018-Jun-18 12:00N 40°40' W 074°02'0 0.0
2018-Jun-18 11:30N 40°40' W 074°02'0 0.0
2018-Jun-18 11:00N 40°40' W 074°02'0 0.0
2018-Jun-18 10:30N 40°40' W 074°02'0 0.0
2018-Jun-18 10:00N 40°40' W 074°02'0 0.0
2018-Jun-18 09:30N 40°40' W 074°02'0 0.0
2018-Jun-18 09:00N 40°40' W 074°02'0 0.0
2018-Jun-18 08:30N 40°40' W 074°02'0 0.1
2018-Jun-18 08:00N 40°40' W 074°02'0 0.0
2018-Jun-18 07:30N 40°40' W 074°02'0 0.0
2018-Jun-18 06:59N 40°40' W 074°02'0 0.0
2018-Jun-18 06:31N 40°40' W 074°02'4 6.5
2018-Jun-18 05:58N 40°39' W 074°07'0 0.1
2018-Jun-18 05:30N 40°39' W 074°07'2 4.8
2018-Jun-18 05:00N 40°39' W 074°04'1 1.6
2018-Jun-18 04:30N 40°38' W 074°04'2 3.3
2018-Jun-18 04:00N 40°39' W 074°05'1 2.0
2018-Jun-18 03:30N 40°39' W 074°07'0 0.1
2018-Jun-18 03:00N 40°39' W 074°07'4 7.4
2018-Jun-18 02:30N 40°40' W 074°02'0 0.2
2018-Jun-18 02:00N 40°40' W 074°02'2 4.7
2018-Jun-18 01:30N 40°42' W 074°00'3 5.2
2018-Jun-18 01:00N 40°44' W 073°58'6 0.2
2018-Jun-16 17:08N 40°48' W 073°53'2 5.6
2018-Jun-16 16:43N 40°47' W 073°56'1 7.0
2018-Jun-16 16:30N 40°46' W 073°57'3 6.9
2018-Jun-16 16:00N 40°42' W 073°59'4 7.1
2018-Jun-16 15:30N 40°40' W 074°03'0 0.5
2018-Jun-16 15:00N 40°40' W 074°02'0 0.0
2018-Jun-16 14:30N 40°40' W 074°02'0 0.0
2018-Jun-16 14:01N 40°40' W 074°02'0 0.1
2018-Jun-16 13:31N 40°40' W 074°02'0 0.1
2018-Jun-16 13:01N 40°40' W 074°03'0 0.0
2018-Jun-16 12:30N 40°40' W 074°03'0 0.9
2018-Jun-16 12:00N 40°40' W 074°03'3 5.0
2018-Jun-16 11:30N 40°39' W 074°06'3 4.7
2018-Jun-16 10:57N 40°39' W 074°10'2 4.7
2018-Jun-16 10:29N 40°38' W 074°12'5 2.6
2018-Jun-16 08:43N 40°33' W 074°14'0 0.0
2018-Jun-16 08:30N 40°33' W 074°14'3 5.0
2018-Jun-16 07:51N 40°36' W 074°12'3 7.3
2018-Jun-16 07:30N 40°39' W 074°11'3 6.2
2018-Jun-16 07:01N 40°39' W 074°07'0 0.0
2018-Jun-16 06:30N 40°39' W 074°07'0 0.0
2018-Jun-16 05:59N 40°39' W 074°07'0 0.0
2018-Jun-16 05:28N 40°39' W 074°07'0 0.0
2018-Jun-16 05:00N 40°39' W 074°07'0 0.0
2018-Jun-16 04:28N 40°39' W 074°07'0 0.0
2018-Jun-16 04:00N 40°39' W 074°07'0 0.0
2018-Jun-16 03:30N 40°39' W 074°07'0 0.0
2018-Jun-16 03:00N 40°39' W 074°07'0 0.0
2018-Jun-16 02:30N 40°39' W 074°07'0 0.0
2018-Jun-16 02:01N 40°39' W 074°07'0 0.0
2018-Jun-16 01:30N 40°39' W 074°07'0 0.0
2018-Jun-16 01:00N 40°39' W 074°07'0 0.0
2018-Jun-16 00:30N 40°39' W 074°07'0 0.0
2018-Jun-16 00:00N 40°39' W 074°07'0 0.0
2018-Jun-15 23:31N 40°39' W 074°07'0 0.0
2018-Jun-15 23:00N 40°39' W 074°07'0 0.0
2018-Jun-15 22:30N 40°39' W 074°07'0 0.0
2018-Jun-15 22:01N 40°39' W 074°07'0 0.0
2018-Jun-15 21:29N 40°39' W 074°07'0 0.0
2018-Jun-15 21:00N 40°39' W 074°07'0 0.0
2018-Jun-15 20:29N 40°39' W 074°07'0 0.0
2018-Jun-15 19:59N 40°39' W 074°07'0 0.0
2018-Jun-15 19:30N 40°39' W 074°07'0 0.0
2018-Jun-15 19:00N 40°39' W 074°07'0 0.0
2018-Jun-15 18:30N 40°39' W 074°07'0 0.0
2018-Jun-15 18:00N 40°39' W 074°07'0 0.8
2018-Jun-15 17:30N 40°39' W 074°07'0 0.2
2018-Jun-15 17:00N 40°39' W 074°07'4 1.0
2018-Jun-15 13:13N 40°38' W 074°12'2 6.3
2018-Jun-15 12:58N 40°39' W 074°10'4 8.2
2018-Jun-15 12:31N 40°39' W 074°05'2 3.5
2018-Jun-15 12:00N 40°38' W 074°03'2 4.4
2018-Jun-15 11:30N 40°40' W 074°03'3 6.3
2018-Jun-15 11:00N 40°42' W 073°60'2 4.7
2018-Jun-15 10:31N 40°44' W 073°58'3 0.1
2018-Jun-14 02:23N 40°47' W 073°56'2 5.5
2018-Jun-14 02:00N 40°45' W 073°58'2 4.5
2018-Jun-14 01:30N 40°43' W 073°58'3 5.9
2018-Jun-14 01:00N 40°41' W 074°02'2 3.7
2018-Jun-14 00:30N 40°40' W 074°02'1 2.5
2018-Jun-14 00:00N 40°39' W 074°03'0 0.8
2018-Jun-13 23:30N 40°38' W 074°03'1 1.9
2018-Jun-13 23:01N 40°37' W 074°04'0 0.4
2018-Jun-13 22:31N 40°37' W 074°04'1 1.0
2018-Jun-13 22:01N 40°38' W 074°04'1 2.9
2018-Jun-13 21:30N 40°39' W 074°05'3 5.0
2018-Jun-13 21:00N 40°39' W 074°09'2 4.3
2018-Jun-13 20:30N 40°39' W 074°11'1 0.2
2018-Jun-13 15:07N 40°39' W 074°10'1 8.7
2018-Jun-13 15:01N 40°39' W 074°09'3 6.4
2018-Jun-13 14:30N 40°39' W 074°04'1 1.7
2018-Jun-13 14:00N 40°39' W 074°03'3 6.0
2018-Jun-13 13:30N 40°39' W 074°07'1 1.3
2018-Jun-13 13:01N 40°39' W 074°08'4 0.8
2018-Jun-13 07:55N 40°36' W 074°12'0 0.0
2018-Jun-13 06:52N 40°36' W 074°12'2 5.9
2018-Jun-13 06:29N 40°39' W 074°11'3 6.7
2018-Jun-13 06:01N 40°39' W 074°07'0 0.0
2018-Jun-13 05:30N 40°39' W 074°07'0 0.0
2018-Jun-13 05:00N 40°39' W 074°07'0 0.0
2018-Jun-13 04:30N 40°39' W 074°07'0 0.0
2018-Jun-13 04:00N 40°39' W 074°07'0 0.0
2018-Jun-13 03:30N 40°39' W 074°07'7 4.0
2018-Jun-13 01:40N 40°33' W 074°14'5 4.9
2018-Jun-13 00:36N 40°38' W 074°12'1 7.7
2018-Jun-13 00:27N 40°39' W 074°10'3 6.6
2018-Jun-12 23:59N 40°39' W 074°06'3 6.6
2018-Jun-12 23:31N 40°40' W 074°02'0 0.5
2018-Jun-12 23:00N 40°40' W 074°02'0 0.6
2018-Jun-12 22:31N 40°40' W 074°02'0 0.0
2018-Jun-12 22:00N 40°40' W 074°02'0 0.0
2018-Jun-12 21:30N 40°40' W 074°02'0 0.0
2018-Jun-12 21:00N 40°40' W 074°02'0 0.0
2018-Jun-12 20:31N 40°40' W 074°02'0 0.0
2018-Jun-12 20:00N 40°40' W 074°02'0 0.0
2018-Jun-12 19:31N 40°40' W 074°02'0 0.2
2018-Jun-12 19:00N 40°40' W 074°02'0 0.0
2018-Jun-12 18:31N 40°40' W 074°02'0 0.1
2018-Jun-12 17:59N 40°40' W 074°02'0 0.0
2018-Jun-12 17:30N 40°40' W 074°02'0 0.0
2018-Jun-12 17:00N 40°40' W 074°02'3 5.4
2018-Jun-12 16:30N 40°39' W 074°05'2 3.1
2018-Jun-12 15:58N 40°38' W 074°07'0 0.0
2018-Jun-12 15:26N 40°38' W 074°07'0 0.0
2018-Jun-12 15:01N 40°38' W 074°07'0 0.0
2018-Jun-12 14:27N 40°38' W 074°07'0 0.0
2018-Jun-12 13:52N 40°38' W 074°07'0 0.0
2018-Jun-12 13:26N 40°38' W 074°07'4 3.4
2018-Jun-12 12:12N 40°37' W 074°12'1 7.3
2018-Jun-12 11:59N 40°38' W 074°12'2 3.8
2018-Jun-12 11:31N 40°39' W 074°09'  

Dump ship's entire track history